createdAt,value
2017-05-10T07:26:53.973Z,1060
2017-05-10T07:27:55.407Z,1068
2017-05-10T07:28:56.873Z,1072
2017-05-10T07:29:58.432Z,1076
2017-05-10T07:31:00.172Z,1020
2017-05-10T07:32:01.599Z,1016
2017-05-10T07:33:03.073Z,1012
2017-05-10T07:34:04.509Z,1020
2017-05-10T07:35:06.127Z,1024
2017-05-10T07:36:07.575Z,1032
2017-05-10T07:37:09.067Z,960
2017-05-10T07:38:10.531Z,964
2017-05-10T07:39:12.136Z,972
2017-05-10T07:40:14.058Z,984
2017-05-10T07:41:15.610Z,960
2017-05-10T07:42:17.242Z,900
2017-05-10T07:43:18.690Z,908
2017-05-10T07:44:20.068Z,908
2017-05-10T07:45:21.503Z,840
2017-05-10T07:46:24.049Z,836
2017-05-10T07:47:25.500Z,836
2017-05-10T07:48:26.974Z,836
2017-05-10T07:49:28.562Z,836
2017-05-10T07:50:29.886Z,848
2017-05-10T07:51:31.331Z,844
2017-05-10T07:52:32.771Z,832
2017-05-10T07:53:34.206Z,844
2017-05-10T07:54:35.638Z,852
2017-05-10T07:55:37.172Z,792
2017-05-10T07:56:38.737Z,812
2017-05-10T07:57:40.221Z,812
2017-05-10T07:58:41.667Z,816
2017-05-10T07:59:43.109Z,820
2017-05-10T08:00:44.606Z,760
2017-05-10T08:01:46.077Z,756
2017-05-10T08:02:47.524Z,756
2017-05-10T08:03:49.009Z,764
2017-05-10T08:04:50.456Z,764
2017-05-10T08:05:51.912Z,772
2017-05-10T08:06:53.401Z,772
2017-05-10T08:07:54.912Z,720
2017-05-10T08:08:56.363Z,720
2017-05-10T08:09:57.909Z,728
2017-05-10T08:10:59.359Z,736
2017-05-10T08:12:00.795Z,688
2017-05-10T08:13:02.233Z,696
2017-05-10T08:14:03.668Z,692
2017-05-10T08:15:05.107Z,668
2017-05-10T08:16:06.764Z,672
2017-05-10T08:17:08.207Z,628
2017-05-10T08:18:09.643Z,624
2017-05-10T08:19:11.089Z,820
2017-05-10T08:20:12.523Z,492
2017-05-10T08:21:13.971Z,692
2017-05-10T08:22:15.406Z,628
2017-05-10T08:23:16.844Z,640
2017-05-10T08:24:18.317Z,452
2017-05-10T08:25:19.750Z,468
2017-05-10T08:26:21.188Z,468
2017-05-10T08:27:22.662Z,508
2017-05-10T08:28:24.098Z,468
2017-05-10T08:29:25.532Z,464
2017-05-10T08:30:27.032Z,440
2017-05-10T08:31:29.405Z,452
2017-05-10T08:32:30.994Z,504
2017-05-10T08:33:32.430Z,592
2017-05-10T08:34:33.872Z,680
2017-05-10T08:35:35.349Z,704
2017-05-10T08:36:37.006Z,744
2017-05-10T08:37:38.609Z,760
2017-05-10T08:38:40.125Z,844
2017-05-10T08:39:41.569Z,712
2017-05-10T08:40:43.111Z,804
2017-05-10T08:41:44.583Z,848
2017-05-10T08:42:46.159Z,832
2017-05-10T08:43:47.836Z,776
2017-05-10T08:44:49.428Z,516
2017-05-10T08:45:51.069Z,484
2017-05-10T08:46:52.518Z,708
2017-05-10T08:47:53.964Z,552
2017-05-10T08:48:55.402Z,472
2017-05-10T08:49:56.980Z,524
2017-05-10T08:50:58.541Z,672
2017-05-10T08:52:00.056Z,616
2017-05-10T08:53:01.600Z,576
2017-05-10T08:54:03.089Z,676
2017-05-10T08:55:04.528Z,700
2017-05-10T08:56:05.964Z,692
2017-05-10T08:57:07.422Z,712
2017-05-10T08:58:08.869Z,728
2017-05-10T08:59:10.461Z,748
2017-05-10T09:00:11.918Z,752
2017-05-10T09:01:13.405Z,768
2017-05-10T09:02:14.965Z,900
2017-05-10T09:03:16.408Z,896
2017-05-10T09:04:17.846Z,852
2017-05-10T09:05:19.283Z,908
2017-05-10T09:06:20.723Z,848
2017-05-10T09:07:22.162Z,664
2017-05-10T09:08:23.596Z,668
2017-05-10T09:09:25.031Z,632
2017-05-10T09:10:27.310Z,620
2017-05-10T09:11:28.788Z,600
2017-05-10T09:12:30.254Z,816
2017-05-10T09:13:31.693Z,624
2017-05-10T09:14:33.123Z,564
2017-05-10T09:15:35.552Z,560
2017-05-10T09:16:36.870Z,544
2017-05-10T09:17:38.325Z,556
2017-05-10T09:18:39.788Z,556
2017-05-10T09:19:41.255Z,808
2017-05-10T09:20:42.782Z,504
2017-05-10T09:21:44.299Z,480
2017-05-10T09:22:45.735Z,508
2017-05-10T09:23:47.189Z,512
2017-05-10T09:24:48.726Z,520
2017-05-10T09:25:50.200Z,500
2017-05-10T09:26:51.641Z,504
2017-05-10T09:27:53.082Z,528
2017-05-10T09:28:54.521Z,520
2017-05-10T09:29:55.967Z,756
2017-05-10T09:30:57.405Z,972
2017-05-10T09:31:58.841Z,872
2017-05-10T09:33:00.281Z,916
2017-05-10T09:34:01.715Z,652
2017-05-10T09:35:03.167Z,584
2017-05-10T09:36:04.606Z,588
2017-05-10T09:37:06.049Z,1012
2017-05-10T09:38:07.511Z,800
2017-05-10T09:39:08.987Z,764
2017-05-10T09:40:10.475Z,976
2017-05-10T09:41:11.946Z,924
2017-05-10T09:42:13.417Z,748
2017-05-10T09:43:14.888Z,1096
2017-05-10T09:44:16.657Z,752
2017-05-10T09:45:18.090Z,764
2017-05-10T09:46:19.564Z,672
2017-05-10T09:47:21.089Z,632
2017-05-10T09:48:23.342Z,604
2017-05-10T09:49:24.811Z,616
2017-05-10T09:50:26.414Z,608
2017-05-10T09:51:28.119Z,616
2017-05-10T09:52:29.747Z,604
2017-05-10T09:53:31.443Z,556
2017-05-10T09:54:33.325Z,532
2017-05-10T09:55:35.417Z,552
2017-05-10T09:56:36.864Z,572
2017-05-10T09:57:38.297Z,580
2017-05-10T09:58:39.794Z,600
2017-05-10T09:59:41.225Z,612
2017-05-10T10:00:42.716Z,724
2017-05-10T10:01:44.160Z,728
2017-05-10T10:02:45.621Z,892
2017-05-10T10:03:47.087Z,808
2017-05-10T10:04:48.540Z,760
2017-05-10T10:05:49.989Z,732
2017-05-10T10:06:51.461Z,716
2017-05-10T10:07:52.902Z,704
2017-05-10T10:08:54.430Z,692
2017-05-10T10:09:55.870Z,732
2017-05-10T10:10:57.311Z,760
2017-05-10T10:11:58.749Z,744
2017-05-10T10:13:00.188Z,752
2017-05-10T10:14:02.283Z,756
2017-05-10T10:15:03.845Z,792
2017-05-10T10:16:05.706Z,796
2017-05-10T10:17:07.134Z,796
2017-05-10T10:18:08.621Z,820
2017-05-10T10:19:10.109Z,888
2017-05-10T10:20:11.664Z,1180
2017-05-10T10:21:13.127Z,272
2017-05-10T10:22:14.557Z,208
2017-05-10T10:23:15.990Z,208
2017-05-10T10:24:17.435Z,196
2017-05-10T10:25:18.941Z,276
2017-05-10T10:26:20.384Z,324
